sensor_id;sensor_type;location;lat;lon;timestamp;P1;durP1;ratioP1;P2;durP2;ratioP2
75535;SDS011;64119;52.070;20.804;2023-07-02T00:00:25;21.40;;;12.40;;
75535;SDS011;64119;52.070;20.804;2023-07-02T00:03:13;18.80;;;12.20;;
75535;SDS011;64119;52.070;20.804;2023-07-02T00:05:41;18.10;;;12.10;;
75535;SDS011;64119;52.070;20.804;2023-07-02T00:08:09;19.40;;;10.80;;
75535;SDS011;64119;52.070;20.804;2023-07-02T00:10:37;18.10;;;11.50;;
75535;SDS011;64119;52.070;20.804;2023-07-02T00:13:05;17.60;;;11.40;;
75535;SDS011;64119;52.070;20.804;2023-07-02T00:15:32;19.80;;;12.00;;
75535;SDS011;64119;52.070;20.804;2023-07-02T00:18:00;19.20;;;11.50;;
75535;SDS011;64119;52.070;20.804;2023-07-02T00:20:28;19.40;;;12.10;;
75535;SDS011;64119;52.070;20.804;2023-07-02T00:22:57;20.00;;;12.20;;
75535;SDS011;64119;52.070;20.804;2023-07-02T00:25:25;17.30;;;10.60;;
75535;SDS011;64119;52.070;20.804;2023-07-02T00:27:53;20.80;;;11.70;;
75535;SDS011;64119;52.070;20.804;2023-07-02T00:30:20;18.90;;;11.30;;
75535;SDS011;64119;52.070;20.804;2023-07-02T00:32:48;19.10;;;11.50;;
75535;SDS011;64119;52.070;20.804;2023-07-02T00:35:16;18.30;;;10.90;;
75535;SDS011;64119;52.070;20.804;2023-07-02T00:37:44;19.50;;;11.90;;
75535;SDS011;64119;52.070;20.804;2023-07-02T00:40:11;16.90;;;10.60;;
75535;SDS011;64119;52.070;20.804;2023-07-02T00:42:39;18.20;;;11.60;;
75535;SDS011;64119;52.070;20.804;2023-07-02T00:45:07;17.90;;;10.70;;
75535;SDS011;64119;52.070;20.804;2023-07-02T00:47:35;16.40;;;10.30;;
75535;SDS011;64119;52.070;20.804;2023-07-02T00:50:04;20.00;;;10.60;;
75535;SDS011;64119;52.070;20.804;2023-07-02T00:52:32;22.00;;;12.10;;
75535;SDS011;64119;52.070;20.804;2023-07-02T00:55:00;21.30;;;11.70;;
75535;SDS011;64119;52.070;20.804;2023-07-02T00:57:28;18.70;;;11.90;;
75535;SDS011;64119;52.070;20.804;2023-07-02T01:00:00;22.30;;;11.70;;
75535;SDS011;64119;52.070;20.804;2023-07-02T01:02:29;20.40;;;11.90;;
75535;SDS011;64119;52.070;20.804;2023-07-02T01:04:57;21.20;;;13.00;;
75535;SDS011;64119;52.070;20.804;2023-07-02T01:07:28;20.40;;;12.10;;
75535;SDS011;64119;52.070;20.804;2023-07-02T01:09:56;17.70;;;11.10;;
75535;SDS011;64119;52.070;20.804;2023-07-02T01:12:24;19.20;;;11.10;;
75535;SDS011;64119;52.070;20.804;2023-07-02T01:14:53;22.50;;;12.10;;
75535;SDS011;64119;52.070;20.804;2023-07-02T01:17:25;21.10;;;12.50;;
75535;SDS011;64119;52.070;20.804;2023-07-02T01:19:55;19.20;;;12.20;;
75535;SDS011;64119;52.070;20.804;2023-07-02T01:22:28;20.40;;;12.50;;
75535;SDS011;64119;52.070;20.804;2023-07-02T01:24:56;20.80;;;12.60;;
75535;SDS011;64119;52.070;20.804;2023-07-02T01:27:26;19.70;;;11.80;;
75535;SDS011;64119;52.070;20.804;2023-07-02T01:29:55;20.60;;;12.40;;
75535;SDS011;64119;52.070;20.804;2023-07-02T01:32:23;19.60;;;11.20;;
75535;SDS011;64119;52.070;20.804;2023-07-02T01:34:51;21.20;;;12.00;;
75535;SDS011;64119;52.070;20.804;2023-07-02T01:37:21;19.40;;;11.90;;
75535;SDS011;64119;52.070;20.804;2023-07-02T01:39:49;18.90;;;11.20;;
75535;SDS011;64119;52.070;20.804;2023-07-02T01:42:20;18.70;;;11.40;;
75535;SDS011;64119;52.070;20.804;2023-07-02T01:44:48;19.20;;;12.10;;
75535;SDS011;64119;52.070;20.804;2023-07-02T01:47:20;16.90;;;11.50;;
75535;SDS011;64119;52.070;20.804;2023-07-02T01:49:48;19.00;;;11.80;;
75535;SDS011;64119;52.070;20.804;2023-07-02T01:52:16;20.50;;;11.50;;
75535;SDS011;64119;52.070;20.804;2023-07-02T01:54:45;18.90;;;10.80;;
75535;SDS011;64119;52.070;20.804;2023-07-02T01:57:15;19.10;;;12.00;;
75535;SDS011;64119;52.070;20.804;2023-07-02T01:59:43;18.50;;;10.60;;
75535;SDS011;64119;52.070;20.804;2023-07-02T02:02:11;19.80;;;11.70;;
75535;SDS011;64119;52.070;20.804;2023-07-02T02:04:38;17.30;;;10.20;;
75535;SDS011;64119;52.070;20.804;2023-07-02T02:07:07;18.50;;;11.20;;
75535;SDS011;64119;52.070;20.804;2023-07-02T02:09:35;17.40;;;11.30;;
75535;SDS011;64119;52.070;20.804;2023-07-02T02:12:05;19.60;;;11.30;;
75535;SDS011;64119;52.070;20.804;2023-07-02T02:14:33;17.70;;;11.50;;
75535;SDS011;64119;52.070;20.804;2023-07-02T02:17:01;19.00;;;11.50;;
75535;SDS011;64119;52.070;20.804;2023-07-02T02:19:29;15.90;;;10.60;;
75535;SDS011;64119;52.070;20.804;2023-07-02T02:21:58;19.60;;;11.90;;
75535;SDS011;64119;52.070;20.804;2023-07-02T02:24:26;15.50;;;10.50;;
75535;SDS011;64119;52.070;20.804;2023-07-02T02:26:55;16.10;;;10.10;;
75535;SDS011;64119;52.070;20.804;2023-07-02T02:29:23;16.40;;;10.80;;
75535;SDS011;64119;52.070;20.804;2023-07-02T02:31:51;21.70;;;10.20;;
75535;SDS011;64119;52.070;20.804;2023-07-02T02:34:21;15.80;;;10.60;;
75535;SDS011;64119;52.070;20.804;2023-07-02T02:36:48;13.90;;;9.70;;
75535;SDS011;64119;52.070;20.804;2023-07-02T02:39:16;17.20;;;10.10;;
75535;SDS011;64119;52.070;20.804;2023-07-02T02:41:44;15.70;;;10.20;;
75535;SDS011;64119;52.070;20.804;2023-07-02T02:44:13;15.00;;;9.90;;
75535;SDS011;64119;52.070;20.804;2023-07-02T02:46:41;13.50;;;9.50;;
75535;SDS011;64119;52.070;20.804;2023-07-02T02:49:10;16.60;;;9.70;;
75535;SDS011;64119;52.070;20.804;2023-07-02T02:51:37;14.50;;;9.90;;
75535;SDS011;64119;52.070;20.804;2023-07-02T02:54:06;14.20;;;9.20;;
75535;SDS011;64119;52.070;20.804;2023-07-02T02:56:33;14.70;;;9.70;;
75535;SDS011;64119;52.070;20.804;2023-07-02T02:59:01;14.50;;;9.00;;
75535;SDS011;64119;52.070;20.804;2023-07-02T03:01:32;15.40;;;9.80;;
75535;SDS011;64119;52.070;20.804;2023-07-02T03:04:00;13.10;;;9.30;;
75535;SDS011;64119;52.070;20.804;2023-07-02T03:06:28;14.90;;;9.20;;
75535;SDS011;64119;52.070;20.804;2023-07-02T03:08:56;14.50;;;9.60;;
75535;SDS011;64119;52.070;20.804;2023-07-02T03:11:23;13.20;;;8.70;;
75535;SDS011;64119;52.070;20.804;2023-07-02T03:13:52;17.10;;;8.80;;
75535;SDS011;64119;52.070;20.804;2023-07-02T03:16:20;13.70;;;9.60;;
75535;SDS011;64119;52.070;20.804;2023-07-02T03:21:17;14.60;;;9.40;;
75535;SDS011;64119;52.070;20.804;2023-07-02T03:23:44;13.50;;;9.10;;
75535;SDS011;64119;52.070;20.804;2023-07-02T03:26:13;13.90;;;9.10;;
75535;SDS011;64119;52.070;20.804;2023-07-02T03:28:41;12.20;;;8.10;;
75535;SDS011;64119;52.070;20.804;2023-07-02T03:31:10;14.10;;;8.90;;
75535;SDS011;64119;52.070;20.804;2023-07-02T03:33:38;11.00;;;7.80;;
75535;SDS011;64119;52.070;20.804;2023-07-02T03:36:06;13.50;;;8.90;;
75535;SDS011;64119;52.070;20.804;2023-07-02T03:38:34;13.40;;;8.50;;
75535;SDS011;64119;52.070;20.804;2023-07-02T03:41:02;11.90;;;8.00;;
75535;SDS011;64119;52.070;20.804;2023-07-02T03:43:30;13.80;;;8.60;;
75535;SDS011;64119;52.070;20.804;2023-07-02T03:45:57;11.70;;;8.50;;
75535;SDS011;64119;52.070;20.804;2023-07-02T03:48:25;12.10;;;8.00;;
75535;SDS011;64119;52.070;20.804;2023-07-02T03:50:53;12.60;;;8.30;;
75535;SDS011;64119;52.070;20.804;2023-07-02T03:53:21;13.40;;;8.50;;
75535;SDS011;64119;52.070;20.804;2023-07-02T03:55:48;11.20;;;7.10;;
75535;SDS011;64119;52.070;20.804;2023-07-02T03:58:17;12.80;;;7.50;;
75535;SDS011;64119;52.070;20.804;2023-07-02T04:00:45;14.20;;;8.50;;
75535;SDS011;64119;52.070;20.804;2023-07-02T04:03:17;12.90;;;7.80;;
75535;SDS011;64119;52.070;20.804;2023-07-02T04:05:45;11.80;;;7.80;;
75535;SDS011;64119;52.070;20.804;2023-07-02T04:08:14;10.70;;;7.50;;
75535;SDS011;64119;52.070;20.804;2023-07-02T04:10:42;12.50;;;6.90;;
75535;SDS011;64119;52.070;20.804;2023-07-02T04:13:10;12.00;;;8.00;;
75535;SDS011;64119;52.070;20.804;2023-07-02T04:15:38;12.30;;;7.10;;
75535;SDS011;64119;52.070;20.804;2023-07-02T04:18:06;10.30;;;7.10;;
75535;SDS011;64119;52.070;20.804;2023-07-02T04:20:34;10.70;;;7.00;;
75535;SDS011;64119;52.070;20.804;2023-07-02T04:23:02;10.30;;;6.10;;
75535;SDS011;64119;52.070;20.804;2023-07-02T04:25:30;8.20;;;5.80;;
75535;SDS011;64119;52.070;20.804;2023-07-02T04:28:18;10.70;;;6.90;;
75535;SDS011;64119;52.070;20.804;2023-07-02T04:30:46;11.70;;;7.70;;
75535;SDS011;64119;52.070;20.804;2023-07-02T04:33:17;9.80;;;6.60;;
75535;SDS011;64119;52.070;20.804;2023-07-02T04:35:45;10.30;;;7.00;;
75535;SDS011;64119;52.070;20.804;2023-07-02T04:38:13;9.20;;;5.90;;
75535;SDS011;64119;52.070;20.804;2023-07-02T04:40:41;11.20;;;6.80;;
75535;SDS011;64119;52.070;20.804;2023-07-02T04:43:12;10.40;;;6.70;;
75535;SDS011;64119;52.070;20.804;2023-07-02T04:45:40;9.40;;;6.20;;
75535;SDS011;64119;52.070;20.804;2023-07-02T04:48:11;9.00;;;6.20;;
75535;SDS011;64119;52.070;20.804;2023-07-02T04:50:41;8.00;;;6.10;;
75535;SDS011;64119;52.070;20.804;2023-07-02T04:53:11;10.00;;;6.00;;
75535;SDS011;64119;52.070;20.804;2023-07-02T04:55:39;9.20;;;6.20;;
75535;SDS011;64119;52.070;20.804;2023-07-02T04:58:06;9.10;;;5.60;;
75535;SDS011;64119;52.070;20.804;2023-07-02T05:00:35;10.00;;;6.20;;
75535;SDS011;64119;52.070;20.804;2023-07-02T05:03:03;9.20;;;5.80;;
75535;SDS011;64119;52.070;20.804;2023-07-02T05:05:31;9.40;;;6.30;;
75535;SDS011;64119;52.070;20.804;2023-07-02T05:07:59;7.90;;;6.30;;
75535;SDS011;64119;52.070;20.804;2023-07-02T05:10:27;9.30;;;6.60;;
75535;SDS011;64119;52.070;20.804;2023-07-02T05:12:54;11.80;;;7.30;;
75535;SDS011;64119;52.070;20.804;2023-07-02T05:15:23;9.50;;;6.60;;
75535;SDS011;64119;52.070;20.804;2023-07-02T05:17:51;10.80;;;7.10;;
75535;SDS011;64119;52.070;20.804;2023-07-02T05:20:19;9.10;;;5.70;;
75535;SDS011;64119;52.070;20.804;2023-07-02T05:22:47;10.40;;;7.00;;
75535;SDS011;64119;52.070;20.804;2023-07-02T05:25:15;8.60;;;6.20;;
75535;SDS011;64119;52.070;20.804;2023-07-02T05:27:43;9.30;;;6.60;;
75535;SDS011;64119;52.070;20.804;2023-07-02T05:30:11;9.50;;;6.90;;
75535;SDS011;64119;52.070;20.804;2023-07-02T05:32:39;9.50;;;6.70;;
75535;SDS011;64119;52.070;20.804;2023-07-02T05:35:07;12.30;;;6.90;;
75535;SDS011;64119;52.070;20.804;2023-07-02T05:37:35;9.30;;;6.50;;
75535;SDS011;64119;52.070;20.804;2023-07-02T05:40:03;9.70;;;7.00;;
75535;SDS011;64119;52.070;20.804;2023-07-02T05:42:32;10.20;;;7.10;;
75535;SDS011;64119;52.070;20.804;2023-07-02T05:44:59;10.60;;;6.40;;
75535;SDS011;64119;52.070;20.804;2023-07-02T05:47:27;9.90;;;7.00;;
75535;SDS011;64119;52.070;20.804;2023-07-02T05:49:57;8.90;;;6.40;;
75535;SDS011;64119;52.070;20.804;2023-07-02T05:52:25;9.90;;;6.30;;
75535;SDS011;64119;52.070;20.804;2023-07-02T05:54:52;8.90;;;6.20;;
75535;SDS011;64119;52.070;20.804;2023-07-02T05:57:20;9.40;;;6.60;;
75535;SDS011;64119;52.070;20.804;2023-07-02T05:59:48;8.10;;;5.60;;
75535;SDS011;64119;52.070;20.804;2023-07-02T06:02:16;9.20;;;6.60;;
75535;SDS011;64119;52.070;20.804;2023-07-02T06:04:44;7.80;;;5.30;;
75535;SDS011;64119;52.070;20.804;2023-07-02T06:07:12;10.90;;;6.60;;
75535;SDS011;64119;52.070;20.804;2023-07-02T06:09:39;10.80;;;6.00;;
75535;SDS011;64119;52.070;20.804;2023-07-02T06:12:07;8.80;;;6.10;;
75535;SDS011;64119;52.070;20.804;2023-07-02T06:14:35;10.20;;;6.10;;
75535;SDS011;64119;52.070;20.804;2023-07-02T06:17:03;7.90;;;5.80;;
75535;SDS011;64119;52.070;20.804;2023-07-02T06:19:34;9.50;;;6.50;;
75535;SDS011;64119;52.070;20.804;2023-07-02T06:22:01;8.70;;;5.80;;
75535;SDS011;64119;52.070;20.804;2023-07-02T06:24:29;9.60;;;6.40;;
75535;SDS011;64119;52.070;20.804;2023-07-02T06:26:58;9.80;;;6.10;;
75535;SDS011;64119;52.070;20.804;2023-07-02T06:29:26;8.70;;;6.00;;
75535;SDS011;64119;52.070;20.804;2023-07-02T06:31:55;8.70;;;5.40;;
75535;SDS011;64119;52.070;20.804;2023-07-02T06:34:24;9.50;;;5.30;;
75535;SDS011;64119;52.070;20.804;2023-07-02T06:36:51;9.80;;;5.40;;
75535;SDS011;64119;52.070;20.804;2023-07-02T06:39:19;8.80;;;5.70;;
75535;SDS011;64119;52.070;20.804;2023-07-02T06:41:48;8.20;;;5.30;;
75535;SDS011;64119;52.070;20.804;2023-07-02T06:44:17;7.90;;;5.50;;
75535;SDS011;64119;52.070;20.804;2023-07-02T06:46:48;8.60;;;5.30;;
75535;SDS011;64119;52.070;20.804;2023-07-02T06:49:16;6.40;;;4.60;;
75535;SDS011;64119;52.070;20.804;2023-07-02T06:51:44;7.10;;;4.80;;
75535;SDS011;64119;52.070;20.804;2023-07-02T06:54:12;6.60;;;4.80;;
75535;SDS011;64119;52.070;20.804;2023-07-02T06:56:40;8.90;;;5.20;;
75535;SDS011;64119;52.070;20.804;2023-07-02T06:59:08;8.30;;;4.50;;
75535;SDS011;64119;52.070;20.804;2023-07-02T07:01:36;6.60;;;4.40;;
75535;SDS011;64119;52.070;20.804;2023-07-02T07:04:04;6.40;;;4.40;;
75535;SDS011;64119;52.070;20.804;2023-07-02T07:06:32;7.50;;;5.00;;
75535;SDS011;64119;52.070;20.804;2023-07-02T07:09:01;6.70;;;4.80;;
75535;SDS011;64119;52.070;20.804;2023-07-02T07:11:29;6.50;;;4.30;;
75535;SDS011;64119;52.070;20.804;2023-07-02T07:13:57;5.40;;;4.00;;
75535;SDS011;64119;52.070;20.804;2023-07-02T07:16:24;5.90;;;4.40;;
75535;SDS011;64119;52.070;20.804;2023-07-02T07:18:52;6.20;;;4.80;;
75535;SDS011;64119;52.070;20.804;2023-07-02T07:21:20;7.90;;;4.70;;
75535;SDS011;64119;52.070;20.804;2023-07-02T07:23:50;7.80;;;5.00;;
75535;SDS011;64119;52.070;20.804;2023-07-02T07:26:18;6.90;;;4.50;;
75535;SDS011;64119;52.070;20.804;2023-07-02T07:28:46;6.10;;;4.10;;
75535;SDS011;64119;52.070;20.804;2023-07-02T07:31:14;6.60;;;4.00;;
75535;SDS011;64119;52.070;20.804;2023-07-02T07:33:42;6.50;;;4.40;;
75535;SDS011;64119;52.070;20.804;2023-07-02T07:36:11;6.20;;;4.00;;
75535;SDS011;64119;52.070;20.804;2023-07-02T07:38:39;5.00;;;3.90;;
75535;SDS011;64119;52.070;20.804;2023-07-02T07:41:07;4.90;;;3.70;;
75535;SDS011;64119;52.070;20.804;2023-07-02T07:43:35;5.70;;;3.50;;
75535;SDS011;64119;52.070;20.804;2023-07-02T07:46:03;6.90;;;3.70;;
75535;SDS011;64119;52.070;20.804;2023-07-02T07:48:31;5.70;;;3.70;;
75535;SDS011;64119;52.070;20.804;2023-07-02T07:50:59;7.00;;;3.40;;
75535;SDS011;64119;52.070;20.804;2023-07-02T07:53:26;6.70;;;3.50;;
75535;SDS011;64119;52.070;20.804;2023-07-02T07:55:54;8.20;;;3.80;;
75535;SDS011;64119;52.070;20.804;2023-07-02T07:58:22;4.70;;;3.20;;
75535;SDS011;64119;52.070;20.804;2023-07-02T08:00:51;8.70;;;3.30;;
75535;SDS011;64119;52.070;20.804;2023-07-02T08:03:19;4.50;;;3.30;;
75535;SDS011;64119;52.070;20.804;2023-07-02T08:05:47;6.90;;;3.10;;
75535;SDS011;64119;52.070;20.804;2023-07-02T08:08:14;4.60;;;2.70;;
75535;SDS011;64119;52.070;20.804;2023-07-02T08:10:42;4.70;;;2.70;;
75535;SDS011;64119;52.070;20.804;2023-07-02T08:13:10;5.40;;;2.90;;
75535;SDS011;64119;52.070;20.804;2023-07-02T08:15:38;5.40;;;3.40;;
75535;SDS011;64119;52.070;20.804;2023-07-02T08:18:06;4.60;;;3.30;;
75535;SDS011;64119;52.070;20.804;2023-07-02T08:20:35;5.30;;;2.90;;
75535;SDS011;64119;52.070;20.804;2023-07-02T08:23:02;5.00;;;2.70;;
75535;SDS011;64119;52.070;20.804;2023-07-02T08:25:30;3.30;;;2.50;;
75535;SDS011;64119;52.070;20.804;2023-07-02T08:27:59;5.00;;;2.60;;
75535;SDS011;64119;52.070;20.804;2023-07-02T08:30:29;4.00;;;2.50;;
75535;SDS011;64119;52.070;20.804;2023-07-02T08:32:56;3.70;;;2.80;;
75535;SDS011;64119;52.070;20.804;2023-07-02T08:35:24;3.40;;;2.50;;
75535;SDS011;64119;52.070;20.804;2023-07-02T08:37:52;4.90;;;3.40;;
75535;SDS011;64119;52.070;20.804;2023-07-02T08:40:20;3.30;;;2.70;;
75535;SDS011;64119;52.070;20.804;2023-07-02T08:42:48;3.20;;;2.40;;
75535;SDS011;64119;52.070;20.804;2023-07-02T08:45:16;5.60;;;2.00;;
75535;SDS011;64119;52.070;20.804;2023-07-02T08:47:45;5.90;;;2.80;;
75535;SDS011;64119;52.070;20.804;2023-07-02T08:50:13;5.70;;;2.90;;
75535;SDS011;64119;52.070;20.804;2023-07-02T08:52:41;3.30;;;2.30;;
75535;SDS011;64119;52.070;20.804;2023-07-02T08:55:10;4.20;;;2.50;;
75535;SDS011;64119;52.070;20.804;2023-07-02T08:57:38;5.60;;;3.00;;
75535;SDS011;64119;52.070;20.804;2023-07-02T09:00:09;3.90;;;2.70;;
75535;SDS011;64119;52.070;20.804;2023-07-02T09:02:39;3.10;;;2.30;;
75535;SDS011;64119;52.070;20.804;2023-07-02T09:05:07;3.70;;;2.30;;
75535;SDS011;64119;52.070;20.804;2023-07-02T09:07:47;4.80;;;2.50;;
75535;SDS011;64119;52.070;20.804;2023-07-02T09:10:30;4.10;;;2.70;;
75535;SDS011;64119;52.070;20.804;2023-07-02T09:15:37;2.90;;;2.30;;
75535;SDS011;64119;52.070;20.804;2023-07-02T09:18:20;3.00;;;2.10;;
75535;SDS011;64119;52.070;20.804;2023-07-02T09:20:54;3.40;;;3.10;;
75535;SDS011;64119;52.070;20.804;2023-07-02T09:23:22;3.50;;;2.70;;
75535;SDS011;64119;52.070;20.804;2023-07-02T09:25:50;3.60;;;2.70;;
75535;SDS011;64119;52.070;20.804;2023-07-02T09:28:18;2.90;;;2.50;;
75535;SDS011;64119;52.070;20.804;2023-07-02T09:33:19;3.40;;;2.70;;
75535;SDS011;64119;52.070;20.804;2023-07-02T09:35:48;5.10;;;2.60;;
75535;SDS011;64119;52.070;20.804;2023-07-02T09:38:19;3.90;;;2.60;;
75535;SDS011;64119;52.070;20.804;2023-07-02T09:40:48;3.30;;;2.70;;
75535;SDS011;64119;52.070;20.804;2023-07-02T09:43:18;4.20;;;2.70;;
75535;SDS011;64119;52.070;20.804;2023-07-02T09:45:47;4.10;;;2.70;;
75535;SDS011;64119;52.070;20.804;2023-07-02T09:48:17;3.40;;;2.50;;
75535;SDS011;64119;52.070;20.804;2023-07-02T09:50:50;3.00;;;2.50;;
75535;SDS011;64119;52.070;20.804;2023-07-02T09:53:18;5.10;;;2.60;;
75535;SDS011;64119;52.070;20.804;2023-07-02T09:55:46;4.70;;;2.50;;
75535;SDS011;64119;52.070;20.804;2023-07-02T09:58:16;3.20;;;2.20;;
75535;SDS011;64119;52.070;20.804;2023-07-02T10:00:44;3.60;;;2.60;;
75535;SDS011;64119;52.070;20.804;2023-07-02T10:03:12;2.90;;;2.50;;
75535;SDS011;64119;52.070;20.804;2023-07-02T10:05:40;3.90;;;2.20;;
75535;SDS011;64119;52.070;20.804;2023-07-02T10:08:12;3.40;;;1.90;;
75535;SDS011;64119;52.070;20.804;2023-07-02T10:10:42;3.70;;;1.90;;
75535;SDS011;64119;52.070;20.804;2023-07-02T10:13:10;4.50;;;1.80;;
75535;SDS011;64119;52.070;20.804;2023-07-02T10:15:38;4.00;;;2.10;;
75535;SDS011;64119;52.070;20.804;2023-07-02T10:18:07;5.30;;;2.30;;
75535;SDS011;64119;52.070;20.804;2023-07-02T10:23:05;3.40;;;2.10;;
75535;SDS011;64119;52.070;20.804;2023-07-02T10:25:36;4.80;;;2.20;;
75535;SDS011;64119;52.070;20.804;2023-07-02T10:28:16;3.60;;;2.20;;
75535;SDS011;64119;52.070;20.804;2023-07-02T10:30:50;5.20;;;2.20;;
75535;SDS011;64119;52.070;20.804;2023-07-02T10:33:19;3.40;;;2.00;;
75535;SDS011;64119;52.070;20.804;2023-07-02T10:35:48;2.80;;;2.20;;
75535;SDS011;64119;52.070;20.804;2023-07-02T10:38:18;4.20;;;2.10;;
75535;SDS011;64119;52.070;20.804;2023-07-02T10:40:47;2.60;;;1.80;;
75535;SDS011;64119;52.070;20.804;2023-07-02T10:43:25;3.50;;;2.20;;
75535;SDS011;64119;52.070;20.804;2023-07-02T10:45:57;2.80;;;2.20;;
75535;SDS011;64119;52.070;20.804;2023-07-02T10:48:30;3.30;;;2.00;;
75535;SDS011;64119;52.070;20.804;2023-07-02T10:50:58;2.90;;;2.20;;
75535;SDS011;64119;52.070;20.804;2023-07-02T10:53:26;2.90;;;2.30;;
75535;SDS011;64119;52.070;20.804;2023-07-02T10:55:55;2.50;;;1.90;;
75535;SDS011;64119;52.070;20.804;2023-07-02T10:58:25;3.10;;;2.00;;
75535;SDS011;64119;52.070;20.804;2023-07-02T11:00:53;2.50;;;1.90;;
75535;SDS011;64119;52.070;20.804;2023-07-02T11:03:22;3.50;;;1.80;;
75535;SDS011;64119;52.070;20.804;2023-07-02T11:05:52;4.40;;;2.20;;
75535;SDS011;64119;52.070;20.804;2023-07-02T11:08:22;4.60;;;1.80;;
75535;SDS011;64119;52.070;20.804;2023-07-02T11:11:14;4.30;;;1.80;;
75535;SDS011;64119;52.070;20.804;2023-07-02T11:13:46;2.90;;;1.90;;
75535;SDS011;64119;52.070;20.804;2023-07-02T11:16:24;2.60;;;1.50;;
75535;SDS011;64119;52.070;20.804;2023-07-02T11:19:08;3.00;;;1.60;;
75535;SDS011;64119;52.070;20.804;2023-07-02T11:21:49;2.90;;;1.70;;
75535;SDS011;64119;52.070;20.804;2023-07-02T11:24:26;2.30;;;1.30;;
75535;SDS011;64119;52.070;20.804;2023-07-02T11:27:03;2.80;;;1.40;;
75535;SDS011;64119;52.070;20.804;2023-07-02T11:29:35;4.10;;;1.60;;
75535;SDS011;64119;52.070;20.804;2023-07-02T11:32:12;3.40;;;1.50;;
75535;SDS011;64119;52.070;20.804;2023-07-02T11:34:41;3.70;;;1.60;;
75535;SDS011;64119;52.070;20.804;2023-07-02T11:37:09;2.60;;;1.40;;
75535;SDS011;64119;52.070;20.804;2023-07-02T11:39:37;2.90;;;1.60;;
75535;SDS011;64119;52.070;20.804;2023-07-02T11:42:05;3.20;;;1.50;;
75535;SDS011;64119;52.070;20.804;2023-07-02T11:44:33;2.10;;;1.50;;
75535;SDS011;64119;52.070;20.804;2023-07-02T11:47:01;3.70;;;1.70;;
75535;SDS011;64119;52.070;20.804;2023-07-02T11:49:32;1.70;;;1.20;;
75535;SDS011;64119;52.070;20.804;2023-07-02T11:52:00;2.50;;;1.60;;
75535;SDS011;64119;52.070;20.804;2023-07-02T11:54:28;1.80;;;1.40;;
75535;SDS011;64119;52.070;20.804;2023-07-02T11:56:56;3.20;;;1.60;;
75535;SDS011;64119;52.070;20.804;2023-07-02T11:59:23;2.30;;;1.50;;
75535;SDS011;64119;52.070;20.804;2023-07-02T12:01:51;2.40;;;1.30;;
75535;SDS011;64119;52.070;20.804;2023-07-02T12:04:19;1.90;;;1.50;;
75535;SDS011;64119;52.070;20.804;2023-07-02T12:06:47;2.30;;;1.50;;
75535;SDS011;64119;52.070;20.804;2023-07-02T12:09:15;2.50;;;1.60;;
75535;SDS011;64119;52.070;20.804;2023-07-02T12:11:46;8.20;;;2.10;;
75535;SDS011;64119;52.070;20.804;2023-07-02T12:14:13;2.20;;;1.50;;
75535;SDS011;64119;52.070;20.804;2023-07-02T12:16:41;2.20;;;1.10;;
75535;SDS011;64119;52.070;20.804;2023-07-02T12:19:09;2.50;;;1.60;;
75535;SDS011;64119;52.070;20.804;2023-07-02T12:21:38;2.60;;;1.40;;
75535;SDS011;64119;52.070;20.804;2023-07-02T12:26:37;2.20;;;1.30;;
75535;SDS011;64119;52.070;20.804;2023-07-02T12:29:04;2.30;;;1.50;;
75535;SDS011;64119;52.070;20.804;2023-07-02T12:31:33;2.50;;;1.50;;
75535;SDS011;64119;52.070;20.804;2023-07-02T12:34:01;2.20;;;1.70;;
75535;SDS011;64119;52.070;20.804;2023-07-02T12:36:30;4.20;;;1.30;;
75535;SDS011;64119;52.070;20.804;2023-07-02T12:38:58;3.40;;;1.50;;
75535;SDS011;64119;52.070;20.804;2023-07-02T12:41:28;2.40;;;1.50;;
75535;SDS011;64119;52.070;20.804;2023-07-02T12:44:06;2.60;;;1.50;;
75535;SDS011;64119;52.070;20.804;2023-07-02T12:46:37;3.10;;;1.30;;
75535;SDS011;64119;52.070;20.804;2023-07-02T12:49:11;2.60;;;1.30;;
75535;SDS011;64119;52.070;20.804;2023-07-02T12:51:41;2.70;;;1.30;;
75535;SDS011;64119;52.070;20.804;2023-07-02T12:54:09;1.90;;;1.00;;
75535;SDS011;64119;52.070;20.804;2023-07-02T12:56:37;2.80;;;1.40;;
75535;SDS011;64119;52.070;20.804;2023-07-02T12:59:05;2.60;;;1.40;;
75535;SDS011;64119;52.070;20.804;2023-07-02T13:01:33;2.60;;;1.20;;
75535;SDS011;64119;52.070;20.804;2023-07-02T13:04:01;2.70;;;1.20;;
75535;SDS011;64119;52.070;20.804;2023-07-02T13:06:32;3.20;;;1.30;;
75535;SDS011;64119;52.070;20.804;2023-07-02T13:09:07;2.40;;;1.20;;
75535;SDS011;64119;52.070;20.804;2023-07-02T13:11:36;2.20;;;1.40;;
75535;SDS011;64119;52.070;20.804;2023-07-02T13:14:05;3.30;;;1.30;;
75535;SDS011;64119;52.070;20.804;2023-07-02T13:19:02;3.40;;;1.30;;
75535;SDS011;64119;52.070;20.804;2023-07-02T13:21:30;1.40;;;1.10;;
75535;SDS011;64119;52.070;20.804;2023-07-02T13:23:58;1.70;;;1.20;;
75535;SDS011;64119;52.070;20.804;2023-07-02T13:26:28;2.40;;;1.40;;
75535;SDS011;64119;52.070;20.804;2023-07-02T13:28:56;3.70;;;1.50;;
75535;SDS011;64119;52.070;20.804;2023-07-02T13:31:25;1.60;;;1.10;;
75535;SDS011;64119;52.070;20.804;2023-07-02T13:33:52;2.10;;;1.30;;
75535;SDS011;64119;52.070;20.804;2023-07-02T13:36:20;4.30;;;1.60;;
75535;SDS011;64119;52.070;20.804;2023-07-02T13:38:48;4.10;;;1.70;;
75535;SDS011;64119;52.070;20.804;2023-07-02T13:41:16;2.50;;;1.20;;
75535;SDS011;64119;52.070;20.804;2023-07-02T13:43:44;4.90;;;1.50;;
75535;SDS011;64119;52.070;20.804;2023-07-02T13:46:12;2.90;;;1.60;;
75535;SDS011;64119;52.070;20.804;2023-07-02T13:48:40;2.70;;;1.50;;
75535;SDS011;64119;52.070;20.804;2023-07-02T13:51:08;8.00;;;1.90;;
75535;SDS011;64119;52.070;20.804;2023-07-02T13:53:36;3.40;;;1.30;;
75535;SDS011;64119;52.070;20.804;2023-07-02T13:56:04;2.20;;;1.50;;
75535;SDS011;64119;52.070;20.804;2023-07-02T14:01:35;2.50;;;1.60;;
75535;SDS011;64119;52.070;20.804;2023-07-02T14:04:03;4.00;;;1.80;;
75535;SDS011;64119;52.070;20.804;2023-07-02T14:06:32;2.30;;;1.60;;
75535;SDS011;64119;52.070;20.804;2023-07-02T14:09:00;2.50;;;1.30;;
75535;SDS011;64119;52.070;20.804;2023-07-02T14:11:28;3.30;;;1.60;;
75535;SDS011;64119;52.070;20.804;2023-07-02T14:13:56;2.60;;;1.40;;
75535;SDS011;64119;52.070;20.804;2023-07-02T14:16:24;3.30;;;1.40;;
75535;SDS011;64119;52.070;20.804;2023-07-02T14:18:52;2.10;;;1.30;;
75535;SDS011;64119;52.070;20.804;2023-07-02T14:21:19;2.70;;;1.40;;
75535;SDS011;64119;52.070;20.804;2023-07-02T14:23:47;2.90;;;1.50;;
75535;SDS011;64119;52.070;20.804;2023-07-02T14:26:15;2.80;;;1.30;;
75535;SDS011;64119;52.070;20.804;2023-07-02T14:28:43;2.70;;;1.50;;
75535;SDS011;64119;52.070;20.804;2023-07-02T14:31:11;4.60;;;1.70;;
75535;SDS011;64119;52.070;20.804;2023-07-02T14:33:39;3.30;;;1.40;;
75535;SDS011;64119;52.070;20.804;2023-07-02T14:36:07;4.00;;;1.70;;
75535;SDS011;64119;52.070;20.804;2023-07-02T14:38:35;2.70;;;1.40;;
75535;SDS011;64119;52.070;20.804;2023-07-02T14:41:03;3.70;;;1.50;;
75535;SDS011;64119;52.070;20.804;2023-07-02T14:43:31;2.30;;;1.30;;
75535;SDS011;64119;52.070;20.804;2023-07-02T14:46:00;6.70;;;1.50;;
75535;SDS011;64119;52.070;20.804;2023-07-02T14:48:29;3.30;;;1.50;;
75535;SDS011;64119;52.070;20.804;2023-07-02T14:50:58;2.50;;;1.40;;
75535;SDS011;64119;52.070;20.804;2023-07-02T14:53:28;2.10;;;1.60;;
75535;SDS011;64119;52.070;20.804;2023-07-02T14:55:58;4.10;;;1.40;;